Time;durP1;ratioP1;P1;durP2;ratioP2;P2;SDS_P1;SDS_P2;PMS_P1;PMS_P2;Temp;Humidity;BMP_temperature;BMP_pressure;BME280_temperature;BME280_humidity;BME280_pressure;Samples;Min_cycle;Max_cycle;Signal;HPM_P1;HPM_P2
2022/01/19 00:00:31;;;;;;;15.95;5.22;;;;;;;-0.77;83.04;101613.19;4458411;32;35848;-71
2022/01/19 00:03:18;;;;;;;15.40;4.82;;;;;;;-0.64;81.41;101616.06;4459123;32;34387;-70
2022/01/19 00:06:05;;;;;;;17.00;5.43;;;;;;;-0.16;80.00;101602.91;4453832;32;34654;-70
2022/01/19 00:08:52;;;;;;;20.67;6.18;;;;;;;-0.82;80.19;101612.94;4462702;32;35437;-70
2022/01/19 00:11:38;;;;;;;15.02;5.55;;;;;;;-0.52;80.93;101606.47;4462477;32;34623;-70
2022/01/19 00:14:24;;;;;;;8.98;5.05;;;;;;;-0.39;79.48;101613.03;4470411;32;35191;-70
2022/01/19 00:17:11;;;;;;;12.40;5.10;;;;;;;-0.38;78.68;101618.22;4454957;32;34600;-70
2022/01/19 00:19:57;;;;;;;20.95;6.80;;;;;;;-0.43;79.98;101619.81;4458037;32;35981;-70
2022/01/19 00:22:43;;;;;;;17.27;5.75;;;;;;;-1.95;87.07;101635.41;4463056;32;35567;-70
2022/01/19 00:25:31;;;;;;;14.65;5.60;;;;;;;-2.47;90.04;101628.88;4454970;32;34109;-70
2022/01/19 00:28:19;;;;;;;20.62;5.53;;;;;;;-2.66;92.34;101626.63;4453719;32;35589;-70
2022/01/19 00:31:06;;;;;;;19.83;6.10;;;;;;;-1.86;89.63;101637.84;4453787;32;35914;-70
2022/01/19 00:33:53;;;;;;;21.92;6.43;;;;;;;-1.70;87.09;101644.13;4463968;32;34586;-70
2022/01/19 00:36:39;;;;;;;17.52;5.60;;;;;;;-2.39;90.96;101646.78;4470321;32;35182;-70
2022/01/19 00:39:31;;;;;;;24.00;6.18;;;;;;;-1.72;88.72;101646.97;4470197;32;34698;-70
2022/01/19 00:42:17;;;;;;;14.13;5.20;;;;;;;-1.03;83.54;101651.34;4470268;32;36048;-70
2022/01/19 00:45:05;;;;;;;17.77;5.55;;;;;;;-0.63;80.83;101641.94;4470162;32;34767;-70
2022/01/19 00:47:51;;;;;;;19.92;7.07;;;;;;;-0.56;80.07;101655.53;4471892;32;34077;-70
2022/01/19 00:50:38;;;;;;;16.45;5.37;;;;;;;-0.38;79.30;101655.09;4484916;32;34625;-70
2022/01/19 00:53:25;;;;;;;17.70;5.53;;;;;;;-0.63;78.85;101662.66;4485834;32;35893;-71
2022/01/19 00:56:12;;;;;;;21.10;5.68;;;;;;;-1.14;82.00;101666.09;4485743;32;34769;-70
2022/01/19 00:58:59;;;;;;;19.37;6.07;;;;;;;-0.83;81.20;101659.72;4474808;32;34422;-70
2022/01/19 01:01:45;;;;;;;22.30;6.10;;;;;;;-2.35;88.14;101657.00;4485640;32;35631;-69
2022/01/19 01:04:33;;;;;;;18.27;5.85;;;;;;;-2.34;89.33;101647.91;4480837;32;34954;-70
2022/01/19 01:07:19;;;;;;;16.17;5.22;;;;;;;-1.57;86.55;101641.62;4469909;32;34587;-70
2022/01/19 01:10:12;;;;;;;16.08;5.30;;;;;;;-0.75;81.30;101654.22;4468580;32;34189;-70
2022/01/19 01:13:20;;;;;;;14.32;5.28;;;;;;;-0.42;79.03;101646.56;4461674;32;35555;-70
2022/01/19 01:16:17;;;;;;;15.90;5.60;;;;;;;-0.58;79.52;101636.00;4484237;32;35835;-70
2022/01/19 01:19:06;;;;;;;19.77;5.75;;;;;;;-0.33;78.12;101625.75;4469811;32;34607;-70
2022/01/19 01:21:53;;;;;;;14.63;6.25;;;;;;;-1.29;83.51;101631.13;4475610;32;34219;-71
2022/01/19 01:24:39;;;;;;;19.85;6.93;;;;;;;-2.58;88.56;101630.09;4484261;32;35532;-70
2022/01/19 01:27:26;;;;;;;16.70;5.85;;;;;;;-2.39;88.91;101628.84;4474532;32;35005;-71
2022/01/19 01:30:12;;;;;;;14.50;5.57;;;;;;;-1.84;87.30;101624.25;4468808;32;35416;-70
2022/01/19 01:32:58;;;;;;;21.15;6.35;;;;;;;-1.04;83.44;101615.56;4473103;32;34231;-70
2022/01/19 01:35:44;;;;;;;18.58;5.95;;;;;;;-2.19;86.41;101598.81;4485254;32;35560;-70
2022/01/19 01:38:31;;;;;;;17.00;6.07;;;;;;;-1.63;86.27;101585.91;4462718;32;34987;-70
2022/01/19 01:41:29;;;;;;;18.70;5.75;;;;;;;-2.21;86.25;101582.06;4480460;31;34670;-70
2022/01/19 01:44:16;;;;;;;20.20;5.62;;;;;;;-2.42;89.77;101596.97;4473268;32;34039;-70
2022/01/19 01:47:03;;;;;;;12.85;5.47;;;;;;;-1.34;83.62;101585.09;4484652;31;35695;-70
2022/01/19 01:55:45;;;;;;;24.50;6.75;;;;;;;-1.78;85.82;101577.00;4481118;32;34458;-70
2022/01/19 01:58:37;;;;;;;21.23;6.28;;;;;;;-1.86;83.77;101581.41;4490594;31;34638;-71
2022/01/19 02:01:27;;;;;;;23.98;7.45;;;;;;;-1.96;83.83;101578.16;4486047;31;34962;-70
2022/01/19 02:04:13;;;;;;;19.83;6.30;;;;;;;-3.36;92.85;101582.63;4482619;31;35551;-70
2022/01/19 02:09:53;;;;;;;20.52;7.00;;;;;;;-3.41;93.74;101563.56;4486613;31;34678;-70
2022/01/19 02:22:07;;;;;;;22.17;6.10;;;;;;;-3.43;93.97;101562.91;4472866;32;34570;-70
2022/01/19 02:24:55;;;;;;;19.80;6.40;;;;;;;-2.54;90.39;101553.56;4474968;32;36079;-70
2022/01/19 02:40:13;;;;;;;17.43;6.10;;;;;;;-3.32;93.44;101533.03;4486827;32;34749;-71
2022/01/19 02:52:01;;;;;;;27.87;6.32;;;;;;;-3.34;91.20;101543.09;4494052;31;34818;-70
2022/01/19 02:54:48;;;;;;;22.17;6.75;;;;;;;-3.65;93.82;101525.09;4489572;31;34448;-70
2022/01/19 02:57:36;;;;;;;22.13;6.28;;;;;;;-3.81;96.32;101518.94;4474608;32;34625;-70
2022/01/19 03:08:43;;;;;;;16.20;6.07;;;;;;;-1.83;85.21;101511.19;4494900;31;34149;-71
2022/01/19 03:09:40;;;;;;;15.95;6.35;;;;;;;-1.66;83.74;101511.84;4481751;31;34532;-70
2022/01/19 03:12:26;;;;;;;18.00;6.37;;;;;;;-1.54;83.53;101504.16;4489745;31;35905;-70
2022/01/19 03:15:13;;;;;;;25.67;6.55;;;;;;;-1.33;81.79;101510.66;4480670;31;34609;-70
2022/01/19 03:18:00;;;;;;;22.85;6.47;;;;;;;-1.45;81.22;101495.00;4478376;31;34208;-71
2022/01/19 03:20:47;;;;;;;21.05;6.32;;;;;;;-1.64;82.05;101498.25;4480477;31;34639;-70
2022/01/19 03:23:33;;;;;;;18.27;5.78;;;;;;;-1.65;81.87;101496.56;4492141;31;35115;-70
2022/01/19 03:26:20;;;;;;;19.98;6.15;;;;;;;-1.64;81.45;101492.88;4491610;31;35495;-70
2022/01/19 03:29:07;;;;;;;18.80;5.72;;;;;;;-1.65;81.83;101489.34;4489312;31;34113;-71
2022/01/19 03:31:53;;;;;;;18.55;6.10;;;;;;;-1.86;82.82;101490.06;4490121;31;34692;-71
2022/01/19 03:34:40;;;;;;;17.98;5.60;;;;;;;-1.76;82.53;101488.97;4492385;31;34955;-70
2022/01/19 03:37:28;;;;;;;17.10;6.45;;;;;;;-1.77;82.30;101487.28;4480664;31;35481;-70
2022/01/19 03:40:14;;;;;;;19.55;6.25;;;;;;;-1.72;82.07;101491.09;4479228;31;34102;-70
2022/01/19 03:43:01;;;;;;;24.58;7.60;;;;;;;-1.63;81.67;101489.16;4493193;31;34633;-70
2022/01/19 03:45:53;;;;;;;17.77;6.30;;;;;;;-1.49;80.73;101495.56;4475635;32;34510;-70
2022/01/19 03:48:58;;;;;;;;;;;;;;;-1.43;80.38;101490.25;4480756;31;34811;-70
2022/01/19 03:51:44;;;;;;;17.12;5.47;;;;;;;-1.52;80.35;101491.37;4493297;31;34386;-70
2022/01/19 03:54:33;;;;;;;18.12;5.70;;;;;;;-1.67;80.92;101490.56;4479063;31;35587;-70
2022/01/19 03:57:20;;;;;;;17.60;5.25;;;;;;;-1.40;80.54;101492.56;4493468;31;35582;-70
2022/01/19 04:00:07;;;;;;;19.35;6.00;;;;;;;-1.47;80.18;101482.78;4492653;31;35557;-70
2022/01/19 04:03:05;;;;;;;14.90;5.32;;;;;;;-1.23;79.21;101489.69;4477304;31;33884;-70
2022/01/19 04:08:38;;;;;;;15.43;5.70;;;;;;;-1.54;79.40;101493.41;4478799;31;35918;-70
2022/01/19 04:11:25;;;;;;;21.95;6.25;;;;;;;-1.57;79.89;101496.47;4492949;31;34758;-70
2022/01/19 04:14:22;;;;;;;17.87;6.43;;;;;;;-1.46;79.68;101490.63;4491928;31;34132;-70
2022/01/19 04:17:12;;;;;;;14.57;5.85;;;;;;;-1.43;79.52;101490.25;4480228;31;34614;-70
2022/01/19 04:20:02;;;;;;;18.98;5.75;;;;;;;-1.61;79.95;101497.87;4480292;31;34927;-70
2022/01/19 04:22:49;;;;;;;19.17;6.97;;;;;;;-1.61;80.02;101492.50;4476891;31;35530;-70
2022/01/19 04:25:38;;;;;;;18.55;6.85;;;;;;;-1.71;80.71;101481.19;4476792;31;34188;-70
2022/01/19 04:28:24;;;;;;;21.02;6.45;;;;;;;-1.48;79.68;101471.19;4481223;31;34633;-70
2022/01/19 04:31:11;;;;;;;20.67;6.75;;;;;;;-1.48;79.52;101479.25;4490744;31;35477;-70
2022/01/19 04:34:02;;;;;;;18.12;6.65;;;;;;;-1.45;78.89;101481.56;4477940;31;34434;-70
2022/01/19 04:37:22;;;;;;;20.00;7.20;;;;;;;-1.54;78.87;101479.97;4477821;31;35071;-70
2022/01/19 04:49:14;;;;;;;17.00;6.15;;;;;;;-2.34;84.64;101464.50;4493200;31;34427;-70
2022/01/19 05:02:17;;;;;;;16.55;6.35;;;;;;;-1.93;79.25;101462.28;4458655;31;34091;-70
2022/01/19 05:04:56;;;;;;;21.33;6.37;;;;;;;-2.08;78.63;101456.03;4492717;31;35449;-70
2022/01/19 05:13:35;;;;;;;20.23;7.18;;;;;;;-2.12;78.57;101446.69;4492271;31;35060;-70
2022/01/19 05:16:22;;;;;;;21.25;8.32;;;;;;;-2.30;78.41;101447.88;4493245;31;34621;-70
2022/01/19 05:19:09;;;;;;;25.35;8.05;;;;;;;-2.21;79.15;101445.09;4467395;31;35872;-70
2022/01/19 05:21:56;;;;;;;22.40;8.10;;;;;;;-2.08;78.76;101445.28;4495809;31;35466;-70
2022/01/19 05:24:45;;;;;;;23.08;7.15;;;;;;;-2.46;80.43;101444.50;4492105;31;35127;-70
2022/01/19 05:27:32;;;;;;;22.87;8.45;;;;;;;-2.17;79.21;101444.53;4491447;31;34719;-70
2022/01/19 05:30:18;;;;;;;21.25;8.57;;;;;;;-2.37;79.90;101448.78;4491623;31;35005;-71
2022/01/19 05:33:05;;;;;;;27.37;7.30;;;;;;;-2.56;80.21;101444.72;4471459;31;35273;-71
2022/01/19 05:35:51;;;;;;;21.50;7.62;;;;;;;-2.45;81.45;101446.97;4491206;31;34288;-71
2022/01/19 05:38:39;;;;;;;26.90;7.97;;;;;;;-2.98;84.49;101446.87;4473940;31;34560;-71
2022/01/19 05:41:25;;;;;;;22.65;8.55;;;;;;;-3.27;85.31;101446.75;4489011;31;34778;-71
2022/01/19 05:44:12;;;;;;;22.40;7.93;;;;;;;-3.09;85.58;101452.66;4489536;31;35661;-71
2022/01/19 05:46:58;;;;;;;19.60;7.78;;;;;;;-2.78;83.59;101446.44;4488436;31;35324;-71
2022/01/19 05:49:44;;;;;;;24.37;8.50;;;;;;;-2.41;80.75;101448.31;4477050;31;34694;-72
2022/01/19 05:52:31;;;;;;;17.98;8.27;;;;;;;-2.19;79.75;101446.59;4487610;31;34543;-72
2022/01/19 05:55:17;;;;;;;23.38;8.13;;;;;;;-2.66;80.72;101438.78;4489701;31;34683;-71
2022/01/19 05:58:03;;;;;;;24.30;8.15;;;;;;;-2.24;79.81;101434.75;4493201;31;35143;-71
2022/01/19 06:00:50;;;;;;;25.23;9.60;;;;;;;-2.35;79.29;101431.47;4493595;31;34733;-71
2022/01/19 06:03:37;;;;;;;20.02;8.48;;;;;;;-2.58;80.52;101449.47;4486247;31;34935;-71
2022/01/19 06:06:23;;;;;;;19.60;7.75;;;;;;;-2.65;80.29;101452.00;4491651;31;34654;-71
2022/01/19 06:09:32;;;;;;;19.98;7.18;;;;;;;-2.69;80.29;101444.50;4491194;31;35014;-72
2022/01/19 06:12:17;;;;;;;22.67;7.70;;;;;;;-2.53;79.84;101447.91;4490845;31;35576;-72
2022/01/19 06:15:04;;;;;;;17.80;6.93;;;;;;;-2.63;79.89;101446.47;4485436;31;36014;-70
2022/01/19 06:17:58;;;;;;;24.05;8.68;;;;;;;-2.59;80.14;101445.94;4479732;31;36038;-71
2022/01/19 06:20:46;;;;;;;24.87;10.00;;;;;;;-2.44;79.58;101453.22;4489625;31;35059;-70
2022/01/19 06:23:34;;;;;;;21.40;8.27;;;;;;;-2.64;79.57;101450.19;4476313;31;34648;-71
2022/01/19 06:26:20;;;;;;;21.40;9.25;;;;;;;-2.42;79.07;101452.00;4470469;31;34635;-71
2022/01/19 06:29:07;;;;;;;24.75;9.18;;;;;;;-2.75;79.90;101446.91;4495898;31;34347;-70
2022/01/19 06:31:53;;;;;;;23.98;9.10;;;;;;;-2.28;79.29;101451.22;4474670;31;34818;-71
2022/01/19 06:34:40;;;;;;;25.27;9.85;;;;;;;-2.22;78.65;101457.72;4467908;31;33430;-71
2022/01/19 06:37:27;;;;;;;26.52;10.35;;;;;;;-2.17;77.82;101455.28;4495362;31;34535;-70
2022/01/19 06:40:15;;;;;;;28.33;11.45;;;;;;;-2.29;77.62;101444.16;4494767;31;35728;-72
2022/01/19 06:43:03;;;;;;;31.50;11.35;;;;;;;-2.52;78.71;101446.06;4479010;31;34392;-71
2022/01/19 06:45:56;;;;;;;26.65;10.68;;;;;;;-2.18;78.28;101444.75;4472998;31;35369;-71
2022/01/19 06:48:43;;;;;;;30.52;12.30;;;;;;;-1.99;77.22;101454.97;4494415;31;34773;-70
2022/01/19 06:51:31;;;;;;;26.42;10.57;;;;;;;-2.72;78.60;101441.16;4479503;31;35477;-70
2022/01/19 06:54:18;;;;;;;25.27;9.48;;;;;;;-4.18;85.67;101451.56;4492060;31;34957;-70
2022/01/19 06:57:05;;;;;;;30.62;10.55;;;;;;;-3.84;86.52;101445.12;4489770;31;34693;-72
2022/01/19 06:59:51;;;;;;;30.12;10.30;;;;;;;-2.82;82.37;101443.25;4488899;31;35923;-72
2022/01/19 07:02:39;;;;;;;37.15;12.35;;;;;;;-3.58;85.04;101446.72;4487403;31;34999;-70
2022/01/19 07:05:26;;;;;;;30.45;11.77;;;;;;;-4.65;88.98;101440.72;4488778;31;34206;-71
2022/01/19 07:08:15;;;;;;;26.60;11.27;;;;;;;-4.13;89.25;101434.97;4478234;31;35525;-71
2022/01/19 07:11:02;;;;;;;23.02;10.45;;;;;;;-3.24;84.24;101433.00;4490748;31;34642;-72
2022/01/19 07:13:48;;;;;;;29.23;10.23;;;;;;;-4.62;88.24;101435.88;4486925;31;34331;-72
2022/01/19 07:16:35;;;;;;;33.22;10.80;;;;;;;-4.42;88.91;101432.84;4472505;31;34998;-72
2022/01/19 07:19:21;;;;;;;25.98;9.68;;;;;;;-4.54;90.73;101425.16;4491750;31;34601;-72
2022/01/19 07:22:08;;;;;;;21.73;8.10;;;;;;;-4.55;89.61;101420.84;4490090;31;35011;-71
2022/01/19 07:25:00;;;;;;;28.30;9.30;;;;;;;-3.99;88.72;101422.75;4487860;31;35165;-72
2022/01/19 07:27:46;;;;;;;25.40;8.60;;;;;;;-3.67;85.56;101414.59;4485817;31;34062;-71
2022/01/19 07:30:33;;;;;;;22.00;9.57;;;;;;;-3.36;84.66;101418.28;4492984;31;34575;-70
2022/01/19 07:33:19;;;;;;;25.92;9.85;;;;;;;-3.64;85.35;101408.91;4492119;31;35648;-70
2022/01/19 07:36:06;;;;;;;24.33;8.23;;;;;;;-2.92;83.40;101402.44;4482474;31;34824;-71
2022/01/19 07:38:57;;;;;;;28.87;10.55;;;;;;;-2.53;80.79;101390.72;4477636;31;34502;-71
2022/01/19 07:41:43;;;;;;;23.70;9.70;;;;;;;-3.87;85.68;101397.25;4474949;31;35596;-71
2022/01/19 07:44:35;;;;;;;27.75;10.48;;;;;;;-3.68;86.14;101391.47;4490594;31;35042;-77
2022/01/19 07:47:28;;;;;;;38.35;14.90;;;;;;;-3.41;86.65;101392.03;4483755;31;34775;-76
2022/01/19 07:50:15;;;;;;;42.30;14.38;;;;;;;-3.60;88.43;101389.78;4477556;31;34808;-77
2022/01/19 07:53:02;;;;;;;34.90;14.50;;;;;;;-3.33;86.42;101386.63;4482660;31;34623;-78
2022/01/19 07:55:53;;;;;;;43.17;16.58;;;;;;;-3.86;89.42;101388.22;4487633;31;34648;-78
2022/01/19 07:58:42;;;;;;;49.78;16.23;;;;;;;-4.37;92.85;101391.22;4496745;31;34597;-77
2022/01/19 08:01:31;;;;;;;49.35;18.37;;;;;;;-3.57;90.82;101392.13;4491616;31;34286;-77
2022/01/19 08:04:19;;;;;;;42.65;14.80;;;;;;;-3.36;90.13;101389.63;4497782;31;34609;-77
2022/01/19 08:07:08;;;;;;;32.60;12.05;;;;;;;-3.32;91.93;101396.31;4487020;31;35999;-76
2022/01/19 08:09:55;;;;;;;26.75;11.98;;;;;;;-2.50;88.30;101385.81;4496757;31;34598;-77
2022/01/19 08:12:43;;;;;;;27.87;12.05;;;;;;;-2.34;87.24;101384.78;4481800;31;34289;-77
2022/01/19 08:15:30;;;;;;;33.35;11.23;;;;;;;-3.24;90.68;101382.03;4496901;31;35450;-75
2022/01/19 08:18:25;;;;;;;33.30;12.80;;;;;;;-2.80;88.01;101376.84;4486251;31;35478;-76
2022/01/19 08:21:11;;;;;;;32.33;11.75;;;;;;;-2.87;90.28;101372.41;4481214;31;34505;-76
2022/01/19 08:23:58;;;;;;;37.13;12.35;;;;;;;-2.00;87.04;101380.75;4496462;31;34257;-76
2022/01/19 08:26:45;;;;;;;28.10;11.60;;;;;;;-1.56;83.75;101368.28;4496473;31;34667;-76
2022/01/19 08:29:33;;;;;;;22.48;9.32;;;;;;;-1.12;81.42;101352.00;4489511;31;34921;-75
2022/01/19 08:32:20;;;;;;;27.70;11.20;;;;;;;-0.61;80.62;101357.22;4482506;31;33623;-76
2022/01/19 08:35:21;;;;;;;32.55;13.48;;;;;;;-1.65;83.16;101367.53;4484688;31;33989;-76
2022/01/19 08:38:12;;;;;;;23.42;10.05;;;;;;;-1.63;85.39;101373.56;4477707;31;34647;-77
2022/01/19 08:40:58;;;;;;;26.45;9.23;;;;;;;-0.52;81.79;101368.66;4484251;31;35910;-76
2022/01/19 08:43:45;;;;;;;23.85;8.98;;;;;;;-1.26;83.25;101371.72;4497031;31;33552;-77
2022/01/19 08:46:31;;;;;;;21.10;9.02;;;;;;;-0.51;81.40;101363.09;4497754;31;35200;-77
2022/01/19 08:49:20;;;;;;;24.52;8.43;;;;;;;-0.78;81.28;101363.91;4472455;31;34553;-78
2022/01/19 08:52:06;;;;;;;22.20;8.50;;;;;;;0.12;79.21;101360.38;4485419;31;35706;-75
2022/01/19 08:54:53;;;;;;;15.25;8.20;;;;;;;0.50;76.69;101370.69;4479257;31;34285;-76
2022/01/19 08:57:41;;;;;;;26.12;9.80;;;;;;;-0.30;80.52;101361.38;4487378;31;34178;-79
2022/01/19 09:00:27;;;;;;;21.83;9.27;;;;;;;-0.53;81.65;101365.16;4487914;31;34478;-79
2022/01/19 09:03:17;;;;;;;22.40;9.10;;;;;;;-0.59;81.65;101359.72;4486980;31;35025;-76
2022/01/19 09:06:04;;;;;;;23.60;7.53;;;;;;;-0.55;82.78;101359.13;4473220;31;34224;-78
2022/01/19 09:08:50;;;;;;;28.52;8.75;;;;;;;-0.26;80.58;101354.56;4484170;31;34085;-77
2022/01/19 09:11:37;;;;;;;20.60;8.15;;;;;;;-0.12;80.67;101355.47;4489502;31;34717;-76
2022/01/19 09:14:23;;;;;;;25.67;8.20;;;;;;;-1.34;86.05;101353.00;4492565;31;34992;-77
2022/01/19 09:17:10;;;;;;;25.48;8.88;;;;;;;-1.04;85.86;101359.94;4481550;31;34682;-77
2022/01/19 09:19:57;;;;;;;20.52;8.05;;;;;;;-0.74;84.99;101354.41;4481658;31;33899;-76
2022/01/19 09:22:44;;;;;;;22.37;8.70;;;;;;;-0.23;82.12;101356.84;4479819;31;35095;-75
2022/01/19 09:25:32;;;;;;;26.92;8.88;;;;;;;0.31;79.28;101361.47;4479743;31;35782;-79
2022/01/19 09:28:19;;;;;;;26.73;9.75;;;;;;;0.70;77.58;101346.47;4493530;31;34356;-79
2022/01/19 09:31:11;;;;;;;26.45;9.13;;;;;;;0.13;80.13;101355.81;4480268;31;34430;-79
2022/01/19 09:34:08;;;;;;;22.62;8.77;;;;;;;0.25;81.33;101359.59;4485434;31;35665;-80
2022/01/19 09:36:54;;;;;;;22.00;7.45;;;;;;;0.34;78.80;101347.62;4484150;31;34838;-78
2022/01/19 09:39:40;;;;;;;19.83;8.10;;;;;;;0.03;80.55;101344.56;4486039;31;35398;-75
2022/01/19 09:42:30;;;;;;;25.10;7.90;;;;;;;-0.13;82.19;101349.25;4487508;31;35051;-77
2022/01/19 09:45:16;;;;;;;23.92;8.82;;;;;;;-0.27;81.96;101342.13;4465411;31;34657;-78
2022/01/19 09:48:04;;;;;;;29.23;9.60;;;;;;;0.03;81.29;101333.78;4488803;31;34976;-78
2022/01/19 09:50:51;;;;;;;25.98;8.75;;;;;;;0.15;80.54;101326.81;4479592;31;34332;-78
2022/01/19 09:53:37;;;;;;;26.75;8.23;;;;;;;0.62;78.75;101317.81;4478923;31;34269;-79
2022/01/19 09:56:25;;;;;;;23.60;7.68;;;;;;;0.72;76.78;101306.66;4481184;31;34417;-79
2022/01/19 09:59:14;;;;;;;26.35;10.73;;;;;;;0.59;77.15;101306.59;4476875;31;34883;-77
2022/01/19 10:02:09;;;;;;;22.95;7.78;;;;;;;0.39;78.23;101293.91;4482680;31;35543;-80
2022/01/19 10:05:06;;;;;;;30.75;10.77;;;;;;;0.34;78.25;101288.31;4487867;31;33180;-79
2022/01/19 10:07:59;;;;;;;20.10;8.60;;;;;;;0.66;76.94;101281.31;4486194;31;35569;-78
2022/01/19 10:10:46;;;;;;;24.75;9.38;;;;;;;1.19;74.83;101276.97;4476585;31;33699;-76
2022/01/19 10:17:00;;;;;;;19.65;8.55;;;;;;;0.61;78.61;101266.78;4475969;31;35019;-78
2022/01/19 10:19:49;;;;;;;19.90;8.48;;;;;;;0.76;78.18;101259.31;4482414;31;35478;-78
2022/01/19 10:22:36;;;;;;;23.05;9.10;;;;;;;1.12;76.71;101249.97;4479870;31;34867;-78
2022/01/19 10:25:24;;;;;;;22.90;8.40;;;;;;;0.46;78.13;101240.00;4482675;31;33642;-77
2022/01/19 10:28:13;;;;;;;20.33;8.85;;;;;;;0.66;78.89;101245.41;4472741;31;33428;-76
2022/01/19 10:31:01;;;;;;;22.08;8.07;;;;;;;1.00;77.51;101235.47;4487957;31;34561;-77
2022/01/19 10:34:09;;;;;;;23.77;8.75;;;;;;;1.44;74.66;101218.53;4473725;31;35023;-76
2022/01/19 10:36:56;;;;;;;20.40;7.80;;;;;;;1.45;74.13;101214.81;4475337;31;35573;-75
2022/01/19 10:39:51;;;;;;;19.40;8.18;;;;;;;1.64;72.81;101223.06;4480490;31;34255;-77
2022/01/19 10:42:37;;;;;;;19.33;8.40;;;;;;;1.41;74.28;101201.94;4480200;31;34734;-78
2022/01/19 10:45:24;;;;;;;22.13;8.23;;;;;;;1.63;73.04;101195.22;4497540;31;34589;-79
2022/01/19 10:48:10;;;;;;;20.95;7.90;;;;;;;2.48;68.68;101198.50;4482847;31;34349;-78
2022/01/19 10:51:14;;;;;;;22.48;7.72;;;;;;;2.47;68.65;101196.81;4492478;31;34195;-78
2022/01/19 10:54:19;;;;;;;23.48;7.12;;;;;;;2.85;66.97;101181.56;4480879;31;35870;-78
2022/01/19 10:57:14;;;;;;;19.17;7.22;;;;;;;2.61;67.12;101186.72;4478283;31;35989;-77
2022/01/19 11:00:21;;;;;;;20.80;6.53;;;;;;;2.92;66.05;101180.41;4491601;31;34665;-77
2022/01/19 11:03:20;;;;;;;21.43;6.63;;;;;;;2.44;67.43;101167.50;4486777;31;34315;-77
2022/01/19 11:06:06;;;;;;;22.08;6.87;;;;;;;2.74;66.18;101161.44;4475619;31;35880;-77
2022/01/19 11:08:53;;;;;;;15.25;7.45;;;;;;;2.16;67.70;101151.69;4494177;31;34975;-77
2022/01/19 11:11:40;;;;;;;17.08;6.07;;;;;;;1.46;70.32;101157.03;4489102;31;35369;-77
2022/01/19 11:14:27;;;;;;;19.05;6.22;;;;;;;2.09;69.47;101145.50;4486951;31;34168;-77
2022/01/19 11:17:13;;;;;;;25.15;7.37;;;;;;;1.78;69.58;101133.62;4487000;31;35492;-77
2022/01/19 11:20:06;;;;;;;16.35;5.93;;;;;;;1.80;69.78;101131.53;4494108;31;34650;-77
2022/01/19 11:23:02;;;;;;;18.75;6.93;;;;;;;2.16;69.23;101124.66;4476386;31;34377;-77
2022/01/19 11:25:59;;;;;;;16.83;7.43;;;;;;;1.53;70.95;101114.59;4474759;31;34003;-78
2022/01/19 11:28:47;;;;;;;19.70;6.97;;;;;;;1.76;70.55;101119.47;4478165;31;34611;-77
2022/01/19 11:31:38;;;;;;;19.30;6.45;;;;;;;2.12;68.62;101111.78;4461713;31;35957;-78
2022/01/19 11:34:47;;;;;;;19.33;5.95;;;;;;;2.15;68.85;101111.34;4475943;31;34220;-79
2022/01/19 11:37:43;;;;;;;19.35;6.32;;;;;;;2.51;67.85;101099.81;4482115;31;34189;-78
2022/01/19 11:40:35;;;;;;;20.12;6.50;;;;;;;2.85;67.29;101097.63;4477675;31;34543;-77
2022/01/19 11:43:25;;;;;;;16.60;6.03;;;;;;;2.68;66.27;101084.66;4488316;31;36025;-77
2022/01/19 11:46:25;;;;;;;21.48;5.95;;;;;;;2.88;65.85;101072.81;4466811;31;34487;-77
2022/01/19 11:49:15;;;;;;;15.90;6.18;;;;;;;2.73;66.72;101075.03;4483412;31;34774;-78
2022/01/19 11:52:03;;;;;;;15.00;5.90;;;;;;;2.74;67.03;101071.31;4476319;31;34587;-77
2022/01/19 11:54:51;;;;;;;15.80;5.87;;;;;;;2.45;67.52;101068.25;4475024;31;36127;-78
2022/01/19 11:57:37;;;;;;;21.73;6.10;;;;;;;2.46;68.42;101056.38;4474596;31;34630;-77
2022/01/19 12:00:31;;;;;;;18.30;7.00;;;;;;;2.68;67.75;101057.59;4489659;31;35114;-76
2022/01/19 12:03:30;;;;;;;20.17;6.12;;;;;;;2.91;66.60;101067.78;4481800;31;34626;-77
2022/01/19 12:06:36;;;;;;;14.48;5.35;;;;;;;3.25;65.54;101048.44;4475294;31;35971;-77
2022/01/19 12:09:24;;;;;;;14.23;5.78;;;;;;;3.22;65.66;101051.59;4483300;31;34279;-78
2022/01/19 12:12:16;;;;;;;16.15;5.55;;;;;;;4.11;63.08;101033.59;4481842;31;35176;-78
2022/01/19 12:15:07;;;;;;;19.60;5.68;;;;;;;3.68;63.26;101033.87;4489140;31;34856;-78
2022/01/19 12:18:00;;;;;;;13.75;4.90;;;;;;;4.04;63.42;101030.16;4494401;31;34592;-77
2022/01/19 12:20:50;;;;;;;18.08;5.80;;;;;;;3.81;62.43;101023.66;4476893;31;34899;-78
2022/01/19 12:23:38;;;;;;;13.23;5.28;;;;;;;3.57;63.62;101017.31;4463562;31;34142;-80
2022/01/19 12:26:24;;;;;;;18.42;5.32;;;;;;;3.59;63.97;101020.66;4476840;31;34314;-79
2022/01/19 12:29:33;;;;;;;16.70;5.20;;;;;;;3.75;63.13;101019.13;4476071;31;35768;-77
2022/01/19 12:32:21;;;;;;;12.32;4.70;;;;;;;4.31;61.03;101006.13;4480832;31;35518;-79
2022/01/19 12:35:18;;;;;;;17.20;5.78;;;;;;;4.14;60.93;101011.44;4485002;31;33873;-78
2022/01/19 12:38:07;;;;;;;15.27;6.12;;;;;;;3.99;62.12;101005.66;4472049;31;34528;-77
2022/01/19 12:41:00;;;;;;;16.02;5.03;;;;;;;4.03;62.46;101006.81;4487138;31;34468;-77
2022/01/19 12:43:46;;;;;;;11.85;4.68;;;;;;;3.52;64.53;100998.22;4474453;31;34702;-78
2022/01/19 12:46:37;;;;;;;15.75;5.40;;;;;;;3.89;62.75;100980.97;4471369;31;35032;-77
2022/01/19 12:49:29;;;;;;;12.95;5.07;;;;;;;3.98;62.38;100980.38;4467631;31;34236;-76
2022/01/19 12:52:15;;;;;;;12.00;5.03;;;;;;;4.33;61.63;100976.88;4487911;31;35813;-78
2022/01/19 12:55:15;;;;;;;13.57;5.07;;;;;;;4.41;61.42;100979.25;4475580;31;34585;-76
2022/01/19 12:58:20;;;;;;;18.30;5.18;;;;;;;4.48;60.86;100970.97;4487520;31;34177;-81
2022/01/19 13:01:09;;;;;;;16.33;5.37;;;;;;;4.81;59.31;100966.75;4476513;31;35583;-78
2022/01/19 13:03:56;;;;;;;15.32;5.87;;;;;;;4.03;61.68;100956.09;4475554;31;34907;-75
2022/01/19 13:06:44;;;;;;;13.27;5.72;;;;;;;4.22;62.04;100956.81;4470999;31;35434;-76
2022/01/19 13:09:38;;;;;;;18.50;6.12;;;;;;;3.74;63.46;100960.56;4464768;31;35093;-77
2022/01/19 13:12:44;;;;;;;18.15;6.53;;;;;;;4.15;62.08;100941.72;4472431;31;35234;-77
2022/01/19 13:15:48;;;;;;;15.10;5.55;;;;;;;4.94;59.52;100939.34;4473824;31;34915;-76
2022/01/19 13:18:42;;;;;;;21.02;6.20;;;;;;;5.00;59.79;100932.09;4483225;31;34887;-75
2022/01/19 13:21:32;;;;;;;21.95;6.60;;;;;;;4.92;59.31;100930.59;4465416;31;34126;-76
2022/01/19 13:24:29;;;;;;;15.15;6.93;;;;;;;4.02;62.50;100931.94;4476114;31;34671;-76
2022/01/19 13:27:15;;;;;;;17.65;6.93;;;;;;;4.79;59.79;100931.72;4483488;31;34724;-76
2022/01/19 13:30:02;;;;;;;18.77;6.97;;;;;;;4.65;60.99;100919.47;4487160;31;33510;-77
2022/01/19 13:32:54;;;;;;;13.73;5.90;;;;;;;4.39;61.33;100921.66;4487282;31;33860;-77
2022/01/19 13:35:43;;;;;;;18.20;5.22;;;;;;;4.02;61.99;100916.50;4473301;31;34692;-75
2022/01/19 13:38:29;;;;;;;20.55;6.87;;;;;;;4.28;61.78;100915.19;4487932;31;35497;-76
2022/01/19 13:41:19;;;;;;;22.85;6.53;;;;;;;4.88;59.11;100908.53;4490034;31;34071;-76
2022/01/19 13:44:08;;;;;;;13.73;5.87;;;;;;;4.90;59.17;100900.16;4476177;31;34281;-76
2022/01/19 13:47:10;;;;;;;16.83;6.15;;;;;;;4.97;59.02;100895.38;4488152;31;35653;-76
2022/01/19 13:49:56;;;;;;;13.62;5.20;;;;;;;4.91;58.46;100896.34;4473168;31;35972;-75
2022/01/19 13:52:43;;;;;;;17.90;6.25;;;;;;;5.26;58.23;100893.47;4462937;31;34586;-77
2022/01/19 13:55:29;;;;;;;14.55;6.25;;;;;;;4.66;60.99;100888.53;4476863;31;35105;-76
2022/01/19 13:58:17;;;;;;;16.42;6.18;;;;;;;4.28;62.36;100879.09;4475439;31;34591;-78
2022/01/19 14:01:08;;;;;;;11.77;5.57;;;;;;;4.29;62.42;100878.84;4476046;31;34995;-77
2022/01/19 14:03:57;;;;;;;;;;;;;;;4.93;60.28;100867.91;4484077;31;34610;-77
2022/01/19 14:06:48;;;;;;;14.27;4.90;;;;;;;5.12;59.86;100865.81;4474770;31;34570;-77
2022/01/19 14:09:35;;;;;;;16.65;4.72;;;;;;;5.02;60.36;100865.59;4482574;31;34532;-77
2022/01/19 14:12:28;;;;;;;13.13;4.47;;;;;;;4.99;60.15;100866.09;4487311;31;35024;-77
2022/01/19 14:15:25;;;;;;;10.43;4.57;;;;;;;4.71;61.65;100864.22;4482667;31;34443;-76
2022/01/19 14:18:12;;;;;;;12.52;5.82;;;;;;;5.02;60.73;100871.03;4462406;31;34226;-76